Wetterdaten: Woche 03.08.15 - 09.08.15 (KW32)
Datum Zeit Temp. A. Feuchte A. Luftdruck Regen Wind Richtung Sonnenschein ET UV Solar Taupunkt Windchill Windben
03.08.2015 00:00 16,7 C 79 % 1018,7 hPa 0,0 l/m 0,5 km/h (0 Bft) N 0,00 h 0,025 mm 0,0 UV-I 0 W/m 13,1 C 16,7 C 1,8 km/h (1 Bft)
03.08.2015 01:00 15,6 C 83 % 1018,5 hPa 0,0 l/m 0,0 km/h (0 Bft) N 0,00 h 0,025 mm 0,0 UV-I 0 W/m 12,7 C 15,6 C 0,2 km/h (0 Bft)
03.08.2015 02:00 14,2 C 88 % 1018,3 hPa 0,0 l/m 0,0 km/h (0 Bft) N 0,00 h 0,025 mm 0,0 UV-I 0 W/m 12,2 C 14,2 C 0,3 km/h (0 Bft)
03.08.2015 03:00 13,4 C 90 % 1018,2 hPa 0,0 l/m 0,0 km/h (0 Bft) N 0,00 h 0,000 mm 0,0 UV-I 0 W/m 11,8 C 13,4 C 0,1 km/h (0 Bft)
03.08.2015 04:00 12,7 C 92 % 1018,0 hPa 0,0 l/m 0,0 km/h (0 Bft) N 0,00 h 0,000 mm 0,0 UV-I 0 W/m 11,5 C 12,7 C 0,1 km/h (0 Bft)
03.08.2015 05:00 12,2 C 93 % 1018,2 hPa 0,0 l/m 0,0 km/h (0 Bft) N 0,00 h 0,000 mm 0,0 UV-I 6 W/m 11,0 C 12,2 C 0,0 km/h (0 Bft)
03.08.2015 06:00 12,1 C 94 % 1018,3 hPa 0,0 l/m 0,0 km/h (0 Bft) N 0,00 h 0,000 mm 0,0 UV-I 17 W/m 11,1 C 12,1 C 0,2 km/h (0 Bft)
03.08.2015 07:00 14,4 C 91 % 1018,2 hPa 0,0 l/m 0,2 km/h (0 Bft) N 0,53 h 0,000 mm 0,6 UV-I 122 W/m 12,9 C 14,4 C 0,6 km/h (0 Bft)
03.08.2015 08:00 18,2 C 77 % 1018,5 hPa 0,0 l/m 0,9 km/h (0 Bft) N 1,00 h 0,025 mm 1,3 UV-I 361 W/m 14,1 C 18,2 C 2,5 km/h (1 Bft)
03.08.2015 09:00 21,0 C 74 % 1018,4 hPa 0,0 l/m 0,9 km/h (0 Bft) S-SO 1,00 h 0,229 mm 2,1 UV-I 456 W/m 16,2 C 21,0 C 3,0 km/h (1 Bft)
03.08.2015 10:00 22,8 C 74 % 1018,2 hPa 0,0 l/m 5,5 km/h (2 Bft) SO 1,00 h 0,254 mm 2,1 UV-I 461 W/m 17,9 C 22,5 C 11,1 km/h (2 Bft)
03.08.2015 11:00 24,4 C 74 % 1018,0 hPa 0,0 l/m 3,9 km/h (1 Bft) O-SO 1,00 h 0,000 mm 2,1 UV-I 461 W/m 19,5 C 24,3 C 9,1 km/h (2 Bft)
03.08.2015 12:00 25,9 C 74 % 1017,6 hPa 0,0 l/m 2,8 km/h (1 Bft) O-SO 1,00 h 0,000 mm 2,1 UV-I 461 W/m 20,9 C 25,8 C 7,2 km/h (2 Bft)
03.08.2015 13:00 27,0 C 52 % 1017,3 hPa 0,0 l/m 3,2 km/h (1 Bft) O-SO 1,00 h 0,000 mm 5,4 UV-I 750 W/m 16,1 C 27,0 C 8,1 km/h (2 Bft)
03.08.2015 14:00 27,4 C 45 % 1017,1 hPa 0,0 l/m 2,8 km/h (1 Bft) O-SO 1,00 h 0,533 mm 5,4 UV-I 707 W/m 14,5 C 27,4 C 6,7 km/h (2 Bft)
03.08.2015 15:00 28,4 C 44 % 1016,8 hPa 0,0 l/m 2,4 km/h (1 Bft) SO 1,00 h 0,483 mm 5,5 UV-I 796 W/m 14,9 C 28,4 C 6,3 km/h (2 Bft)
03.08.2015 16:00 28,1 C 44 % 1016,3 hPa 0,0 l/m 2,4 km/h (1 Bft) SO 1,00 h 0,000 mm 5,5 UV-I 796 W/m 14,7 C 28,1 C 6,2 km/h (2 Bft)
03.08.2015 17:00 27,8 C 42 % 1016,0 hPa 0,0 l/m 2,5 km/h (1 Bft) S-SO 1,00 h 0,000 mm 2,5 UV-I 499 W/m 13,7 C 27,8 C 5,7 km/h (2 Bft)
03.08.2015 18:00 27,2 C 42 % 1015,6 hPa 0,0 l/m 0,7 km/h (0 Bft) N 1,00 h 0,305 mm 0,8 UV-I 66 W/m 13,2 C 27,2 C 2,3 km/h (1 Bft)
03.08.2015 19:00 26,6 C 44 % 1015,4 hPa 0,0 l/m 1,5 km/h (1 Bft) SO 0,08 h 0,051 mm 0,0 UV-I 34 W/m 13,3 C 26,6 C 4,2 km/h (1 Bft)
03.08.2015 20:00 25,2 C 50 % 1015,5 hPa 0,0 l/m 0,3 km/h (0 Bft) N 0,00 h 0,051 mm 0,0 UV-I 13 W/m 13,9 C 25,2 C 1,3 km/h (1 Bft)
03.08.2015 21:00 22,5 C 60 % 1015,9 hPa 0,0 l/m 0,0 km/h (0 Bft) N 0,00 h 0,025 mm 0,0 UV-I 0 W/m 14,3 C 22,5 C 0,0 km/h (0 Bft)
03.08.2015 22:00 20,0 C 71 % 1015,9 hPa 0,0 l/m 0,0 km/h (0 Bft) N 0,00 h 0,051 mm 0,0 UV-I 0 W/m 14,7 C 20,0 C 0,0 km/h (0 Bft)
03.08.2015 23:00 17,9 C 80 % 1016,1 hPa 0,0 l/m 0,0 km/h (0 Bft) N 0,00 h 0,001 mm 0,0 UV-I 0 W/m 14,3 C 17,9 C 0,0 km/h (0 Bft)
04.08.2015 00:00 16,7 C 84 % 1015,8 hPa 0,0 l/m 0,0 km/h (0 Bft) N 0,00 h 0,025 mm 0,0 UV-I 0 W/m 13,9 C 16,7 C 0,1 km/h (0 Bft)
04.08.2015 01:00 15,8 C 86 % 1015,4 hPa 0,0 l/m 0,0 km/h (0 Bft) N 0,00 h 0,025 mm 0,0 UV-I 0 W/m 13,4 C 15,8 C 0,0 km/h (0 Bft)
04.08.2015 02:00 15,1 C 88 % 1015,2 hPa 0,0 l/m 0,0 km/h (0 Bft) N 0,00 h 0,000 mm 0,0 UV-I 0 W/m 13,2 C 15,1 C 0,0 km/h (0 Bft)
04.08.2015 03:00 14,4 C 91 % 1015,0 hPa 0,0 l/m 0,0 km/h (0 Bft) N 0,00 h 0,000 mm 0,0 UV-I 0 W/m 12,9 C 14,4 C 0,0 km/h (0 Bft)
04.08.2015 04:00 13,7 C 93 % 1014,8 hPa 0,0 l/m 0,0 km/h (0 Bft) N 0,00 h 0,000 mm 0,0 UV-I 0 W/m 12,6 C 13,7 C 0,0 km/h (0 Bft)
04.08.2015 05:00 13,1 C 94 % 1014,5 hPa 0,0 l/m 0,0 km/h (0 Bft) N 0,00 h 0,000 mm 0,0 UV-I 6 W/m 12,1 C 13,1 C 0,0 km/h (0 Bft)
04.08.2015 06:00 13,2 C 93 % 1014,3 hPa 0,0 l/m 0,0 km/h (0 Bft) N 0,00 h 0,000 mm 0,0 UV-I 18 W/m 12,1 C 13,2 C 0,0 km/h (0 Bft)
04.08.2015 07:00 15,5 C 88 % 1014,4 hPa 0,0 l/m 0,0 km/h (0 Bft) N 0,57 h 0,000 mm 0,6 UV-I 139 W/m 13,5 C 15,5 C 0,3 km/h (0 Bft)
04.08.2015 08:00 20,4 C 75 % 1013,8 hPa 0,0 l/m 0,0 km/h (0 Bft) N 1,00 h 0,076 mm 1,3 UV-I 379 W/m 15,8 C 20,4 C 0,1 km/h (0 Bft)
04.08.2015 09:00 24,8 C 59 % 1013,3 hPa 0,0 l/m 0,8 km/h (0 Bft) N 1,00 h 0,229 mm 2,5 UV-I 549 W/m 16,3 C 24,8 C 2,4 km/h (1 Bft)
04.08.2015 10:00 26,5 C 51 % 1012,8 hPa 0,0 l/m 6,3 km/h (2 Bft) SO 1,00 h 0,356 mm 3,7 UV-I 680 W/m 15,6 C 26,3 C 12,2 km/h (2 Bft)
04.08.2015 11:00 27,8 C 47 % 1012,3 hPa 0,0 l/m 5,3 km/h (1 Bft) SO 1,00 h 0,483 mm 5,3 UV-I 772 W/m 15,5 C 27,7 C 11,7 km/h (2 Bft)
04.08.2015 12:00 29,3 C 41 % 1012,1 hPa 0,0 l/m 4,8 km/h (1 Bft) SO 1,00 h 0,559 mm 6,2 UV-I 827 W/m 14,6 C 29,2 C 9,8 km/h (2 Bft)
04.08.2015 13:00 30,1 C 41 % 1011,6 hPa 0,0 l/m 6,5 km/h (2 Bft) S-SO 1,00 h 0,584 mm 6,2 UV-I 802 W/m 15,3 C 30,0 C 11,8 km/h (2 Bft)
04.08.2015 14:00 30,1 C 39 % 1011,3 hPa 0,0 l/m 6,4 km/h (2 Bft) S 1,00 h 0,610 mm 4,5 UV-I 586 W/m 14,5 C 30,0 C 11,9 km/h (2 Bft)
04.08.2015 15:00 31,0 C 35 % 1011,2 hPa 0,0 l/m 4,4 km/h (1 Bft) S-SW 1,00 h 0,457 mm 4,8 UV-I 761 W/m 13,7 C 31,0 C 9,8 km/h (2 Bft)
04.08.2015 16:00 31,0 C 33 % 1011,1 hPa 0,0 l/m 5,5 km/h (2 Bft) W-SW 1,00 h 0,559 mm 2,9 UV-I 498 W/m 12,7 C 31,0 C 11,1 km/h (2 Bft)
04.08.2015 17:00 30,8 C 32 % 1011,0 hPa 0,0 l/m 4,5 km/h (1 Bft) W 1,00 h 0,406 mm 1,7 UV-I 382 W/m 12,1 C 30,7 C 9,7 km/h (2 Bft)
04.08.2015 18:00 29,3 C 38 % 1011,0 hPa 0,0 l/m 9,3 km/h (2 Bft) W 0,80 h 0,330 mm 0,8 UV-I 80 W/m 13,6 C 29,0 C 17,0 km/h (3 Bft)
04.08.2015 19:00 25,8 C 51 % 1012,4 hPa 0,0 l/m 10,7 km/h (2 Bft) W 0,33 h 0,152 mm 0,0 UV-I 41 W/m 14,9 C 25,0 C 19,5 km/h (3 Bft)
04.08.2015 20:00 23,0 C 62 % 1013,7 hPa 0,0 l/m 4,7 km/h (1 Bft) W-NW 0,00 h 0,127 mm 0,0 UV-I 15 W/m 15,3 C 22,7 C 9,8 km/h (2 Bft)
04.08.2015 21:00 21,9 C 64 % 1014,8 hPa 0,0 l/m 3,5 km/h (1 Bft) W-NW 0,00 h 0,051 mm 0,0 UV-I 0 W/m 14,8 C 21,7 C 7,7 km/h (2 Bft)
04.08.2015 22:00 20,8 C 67 % 1015,3 hPa 0,0 l/m 7,4 km/h (2 Bft) W-NW 0,00 h 0,051 mm 0,0 UV-I 0 W/m 14,4 C 20,0 C 13,0 km/h (3 Bft)
04.08.2015 23:00 19,1 C 76 % 1016,0 hPa 0,0 l/m 0,6 km/h (0 Bft) N 0,00 h 0,051 mm 0,0 UV-I 0 W/m 14,7 C 19,1 C 2,2 km/h (1 Bft)
05.08.2015 00:00 19,1 C 78 % 1016,7 hPa 0,0 l/m 1,7 km/h (1 Bft) W 0,00 h 0,025 mm 0,0 UV-I 0 W/m 15,2 C 19,1 C 5,4 km/h (1 Bft)
05.08.2015 01:00 19,0 C 79 % 1016,8 hPa 0,0 l/m 0,0 km/h (0 Bft) N 0,00 h 0,025 mm 0,0 UV-I 0 W/m 15,3 C 19,0 C 0,2 km/h (0 Bft)
05.08.2015 02:00 18,6 C 82 % 1016,8 hPa 0,0 l/m 0,5 km/h (0 Bft) N 0,00 h 0,025 mm 0,0 UV-I 0 W/m 15,4 C 18,6 C 1,7 km/h (1 Bft)
05.08.2015 03:00 17,8 C 85 % 1017,0 hPa 0,0 l/m 0,7 km/h (0 Bft) N 0,00 h 0,025 mm 0,0 UV-I 0 W/m 15,1 C 17,8 C 2,2 km/h (1 Bft)
05.08.2015 04:00 16,8 C 88 % 1017,3 hPa 0,0 l/m 0,0 km/h (0 Bft) N 0,00 h 0,000 mm 0,0 UV-I 0 W/m 14,8 C 16,8 C 0,0 km/h (0 Bft)
05.08.2015 05:00 15,8 C 91 % 1017,3 hPa 0,0 l/m 0,0 km/h (0 Bft) N 0,00 h 0,000 mm 0,0 UV-I 6 W/m 14,3 C 15,8 C 0,0 km/h (0 Bft)
05.08.2015 06:00 15,2 C 93 % 1017,6 hPa 0,0 l/m 0,0 km/h (0 Bft) N 0,00 h 0,000 mm 0,0 UV-I 17 W/m 14,0 C 15,2 C 0,0 km/h (0 Bft)
05.08.2015 07:00 16,4 C 90 % 1017,9 hPa 0,0 l/m 0,0 km/h (0 Bft) N 0,57 h 0,000 mm 0,7 UV-I 148 W/m 14,8 C 16,4 C 0,0 km/h (0 Bft)
05.08.2015 08:00 19,4 C 74 % 1017,9 hPa 0,0 l/m 0,1 km/h (0 Bft) N 1,00 h 0,076 mm 1,4 UV-I 387 W/m 14,5 C 19,4 C 0,4 km/h (0 Bft)
05.08.2015 09:00 21,7 C 58 % 1018,1 hPa 0,0 l/m 1,2 km/h (1 Bft) N 1,00 h 0,229 mm 2,6 UV-I 550 W/m 12,9 C 21,7 C 2,9 km/h (1 Bft)
05.08.2015 10:00 22,5 C 54 % 1018,0 hPa 0,0 l/m 0,9 km/h (0 Bft) N 1,00 h 0,330 mm 3,3 UV-I 504 W/m 12,8 C 22,5 C 2,8 km/h (1 Bft)
05.08.2015 11:00 24,8 C 46 % 1017,9 hPa 0,0 l/m 2,5 km/h (1 Bft) N 1,00 h 0,305 mm 5,4 UV-I 806 W/m 12,2 C 24,7 C 5,3 km/h (1 Bft)
05.08.2015 12:00 26,2 C 43 % 1017,6 hPa 0,0 l/m 3,5 km/h (1 Bft) W-NW 1,00 h 0,508 mm 6,1 UV-I 854 W/m 12,6 C 26,2 C 7,3 km/h (2 Bft)
05.08.2015 13:00 27,0 C 42 % 1016,9 hPa 0,0 l/m 3,0 km/h (1 Bft) N 1,00 h 0,533 mm 6,5 UV-I 851 W/m 12,9 C 27,0 C 6,5 km/h (2 Bft)
05.08.2015 14:00 28,1 C 40 % 1016,3 hPa 0,0 l/m 3,3 km/h (1 Bft) N 1,00 h 0,559 mm 6,0 UV-I 830 W/m 13,3 C 28,1 C 7,0 km/h (2 Bft)
05.08.2015 15:00 28,0 C 40 % 1015,8 hPa 0,0 l/m 5,6 km/h (2 Bft) S 1,00 h 0,559 mm 4,6 UV-I 717 W/m 12,9 C 27,7 C 10,0 km/h (2 Bft)
05.08.2015 16:00 28,4 C 37 % 1015,4 hPa 0,0 l/m 3,4 km/h (1 Bft) N 1,00 h 0,508 mm 3,3 UV-I 587 W/m 12,4 C 28,4 C 7,1 km/h (2 Bft)
05.08.2015 17:00 28,0 C 38 % 1014,9 hPa 0,0 l/m 2,6 km/h (1 Bft) S 1,00 h 0,432 mm 1,9 UV-I 430 W/m 12,3 C 28,0 C 6,3 km/h (2 Bft)
05.08.2015 18:00 27,2 C 39 % 1014,5 hPa 0,0 l/m 0,7 km/h (0 Bft) N 0,13 h 0,305 mm 1,0 UV-I 42 W/m 12,1 C 27,2 C 2,4 km/h (1 Bft)
05.08.2015 19:00 26,6 C 41 % 1014,5 hPa 0,0 l/m 0,1 km/h (0 Bft) N 0,00 h 0,051 mm 0,0 UV-I 25 W/m 12,0 C 26,6 C 0,3 km/h (0 Bft)
05.08.2015 20:00 24,9 C 47 % 1014,7 hPa 0,0 l/m 0,0 km/h (0 Bft) N 0,00 h 0,025 mm 0,0 UV-I 10 W/m 12,9 C 24,9 C 0,0 km/h (0 Bft)
05.08.2015 21:00 21,7 C 62 % 1015,0 hPa 0,0 l/m 0,2 km/h (0 Bft) N 0,00 h 0,025 mm 0,0 UV-I 0 W/m 14,1 C 21,7 C 0,6 km/h (0 Bft)
05.08.2015 22:00 19,6 C 70 % 1015,3 hPa 0,0 l/m 0,0 km/h (0 Bft) N 0,00 h 0,025 mm 0,0 UV-I 0 W/m 13,9 C 19,6 C 0,1 km/h (0 Bft)
05.08.2015 23:00 18,3 C 73 % 1015,3 hPa 0,0 l/m 0,1 km/h (0 Bft) N 0,00 h 0,025 mm 0,0 UV-I 0 W/m 13,5 C 18,3 C 0,6 km/h (0 Bft)
06.08.2015 00:00 17,4 C 77 % 1015,2 hPa 0,0 l/m 0,0 km/h (0 Bft) N 0,00 h 0,025 mm 0,0 UV-I 0 W/m 13,3 C 17,4 C 0,1 km/h (0 Bft)
06.08.2015 01:00 16,5 C 82 % 1015,4 hPa 0,0 l/m 0,0 km/h (0 Bft) N 0,00 h 0,025 mm 0,0 UV-I 0 W/m 13,4 C 16,5 C 0,0 km/h (0 Bft)
06.08.2015 02:00 15,9 C 84 % 1015,6 hPa 0,0 l/m 0,0 km/h (0 Bft) N 0,00 h 0,025 mm 0,0 UV-I 0 W/m 13,2 C 15,9 C 0,0 km/h (0 Bft)
06.08.2015 03:00 15,5 C 86 % 1015,4 hPa 0,0 l/m 0,0 km/h (0 Bft) N 0,00 h 0,025 mm 0,0 UV-I 0 W/m 13,1 C 15,5 C 0,0 km/h (0 Bft)
06.08.2015 04:00 14,7 C 88 % 1015,4 hPa 0,0 l/m 0,0 km/h (0 Bft) N 0,00 h 0,000 mm 0,0 UV-I 0 W/m 12,8 C 14,7 C 0,2 km/h (0 Bft)
06.08.2015 05:00 14,4 C 89 % 1015,6 hPa 0,0 l/m 0,0 km/h (0 Bft) N 0,00 h 0,000 mm 0,0 UV-I 5 W/m 12,7 C 14,4 C 0,1 km/h (0 Bft)
06.08.2015 06:00 14,0 C 90 % 1015,9 hPa 0,0 l/m 0,0 km/h (0 Bft) N 0,00 h 0,000 mm 0,0 UV-I 21 W/m 12,5 C 14,0 C 0,0 km/h (0 Bft)
06.08.2015 07:00 16,0 C 86 % 1016,1 hPa 0,0 l/m 0,0 km/h (0 Bft) N 0,65 h 0,000 mm 0,7 UV-I 147 W/m 13,5 C 16,0 C 0,0 km/h (0 Bft)
06.08.2015 08:00 20,7 C 74 % 1016,0 hPa 0,0 l/m 0,1 km/h (0 Bft) N 1,00 h 0,076 mm 1,3 UV-I 323 W/m 15,9 C 20,7 C 0,4 km/h (0 Bft)
06.08.2015 09:00 25,7 C 59 % 1016,1 hPa 0,0 l/m 0,0 km/h (0 Bft) N 1,00 h 0,203 mm 2,4 UV-I 538 W/m 17,0 C 25,7 C 0,3 km/h (0 Bft)
06.08.2015 10:00 28,5 C 48 % 1016,1 hPa 0,0 l/m 0,8 km/h (0 Bft) W 1,00 h 0,356 mm 3,6 UV-I 665 W/m 16,4 C 28,5 C 2,8 km/h (1 Bft)
06.08.2015 11:00 30,4 C 38 % 1016,0 hPa 0,0 l/m 2,5 km/h (1 Bft) S 1,00 h 0,457 mm 4,8 UV-I 713 W/m 14,5 C 30,4 C 6,0 km/h (2 Bft)
06.08.2015 12:00 31,7 C 34 % 1015,8 hPa 0,0 l/m 4,2 km/h (1 Bft) W-SW 1,00 h 0,508 mm 5,8 UV-I 799 W/m 13,8 C 31,7 C 8,7 km/h (2 Bft)
06.08.2015 13:00 32,7 C 32 % 1015,5 hPa 0,0 l/m 2,3 km/h (1 Bft) S 1,00 h 0,584 mm 5,6 UV-I 766 W/m 13,6 C 32,7 C 5,5 km/h (2 Bft)
06.08.2015 14:00 33,5 C 30 % 1015,2 hPa 0,0 l/m 1,8 km/h (1 Bft) N 1,00 h 0,559 mm 5,3 UV-I 781 W/m 13,6 C 33,5 C 4,5 km/h (1 Bft)
06.08.2015 15:00 33,3 C 30 % 1014,8 hPa 0,0 l/m 3,4 km/h (1 Bft) S 1,00 h 0,559 mm 4,1 UV-I 650 W/m 13,4 C 33,3 C 6,2 km/h (2 Bft)
06.08.2015 16:00 33,0 C 30 % 1014,5 hPa 0,0 l/m 2,8 km/h (1 Bft) S-SO 1,00 h 0,508 mm 2,7 UV-I 497 W/m 13,3 C 33,0 C 5,7 km/h (2 Bft)
06.08.2015 17:00 32,8 C 31 % 1014,4 hPa 0,0 l/m 2,9 km/h (1 Bft) SO 1,00 h 0,381 mm 1,6 UV-I 379 W/m 13,3 C 32,8 C 5,9 km/h (2 Bft)
06.08.2015 18:00 32,1 C 31 % 1014,4 hPa 0,0 l/m 1,5 km/h (1 Bft) N 1,00 h 0,305 mm 0,7 UV-I 96 W/m 12,8 C 32,1 C 3,7 km/h (1 Bft)
06.08.2015 19:00 30,9 C 35 % 1014,4 hPa 0,0 l/m 0,1 km/h (0 Bft) N 1,00 h 0,102 mm 0,0 UV-I 64 W/m 13,7 C 30,9 C 0,5 km/h (0 Bft)
06.08.2015 20:00 29,0 C 42 % 1014,5 hPa 0,0 l/m 0,2 km/h (0 Bft) N 0,08 h 0,051 mm 0,0 UV-I 26 W/m 14,6 C 29,0 C 1,0 km/h (0 Bft)
06.08.2015 21:00 26,1 C 52 % 1014,8 hPa 0,0 l/m 0,0 km/h (0 Bft) N 0,00 h 0,025 mm 0,0 UV-I 0 W/m 15,3 C 26,1 C 0,5 km/h (0 Bft)
06.08.2015 22:00 24,0 C 60 % 1014,9 hPa 0,0 l/m 0,0 km/h (0 Bft) N 0,00 h 0,051 mm 0,0 UV-I 0 W/m 15,6 C 24,0 C 0,1 km/h (0 Bft)
06.08.2015 23:00 21,9 C 68 % 1015,0 hPa 0,0 l/m 0,0 km/h (0 Bft) N 0,00 h 0,051 mm 0,0 UV-I 0 W/m 15,8 C 21,9 C 0,2 km/h (0 Bft)
07.08.2015 00:00 20,9 C 70 % 1015,3 hPa 0,0 l/m 0,0 km/h (0 Bft) N 0,00 h 0,025 mm 0,0 UV-I 0 W/m 15,1 C 20,9 C 0,5 km/h (0 Bft)
07.08.2015 01:00 19,4 C 76 % 1015,4 hPa 0,0 l/m 0,0 km/h (0 Bft) N 0,00 h 0,025 mm 0,0 UV-I 0 W/m 15,1 C 19,4 C 0,1 km/h (0 Bft)
07.08.2015 02:00 18,4 C 79 % 1015,3 hPa 0,0 l/m 0,0 km/h (0 Bft) N 0,00 h 0,025 mm 0,0 UV-I 0 W/m 14,8 C 18,4 C 0,0 km/h (0 Bft)
07.08.2015 03:00 17,8 C 81 % 1015,1 hPa 0,0 l/m 0,0 km/h (0 Bft) N 0,00 h 0,025 mm 0,0 UV-I 0 W/m 14,5 C 17,8 C 0,1 km/h (0 Bft)
07.08.2015 04:00 17,9 C 81 % 1015,1 hPa 0,0 l/m 0,0 km/h (0 Bft) N 0,00 h 0,000 mm 0,0 UV-I 0 W/m 14,7 C 17,9 C 0,3 km/h (0 Bft)
07.08.2015 05:00 16,9 C 85 % 1015,1 hPa 0,0 l/m 0,0 km/h (0 Bft) N 0,00 h 0,025 mm 0,0 UV-I 6 W/m 14,3 C 16,9 C 0,0 km/h (0 Bft)
07.08.2015 06:00 16,9 C 85 % 1015,1 hPa 0,0 l/m 0,0 km/h (0 Bft) N 0,00 h 0,000 mm 0,0 UV-I 22 W/m 14,3 C 16,9 C 0,0 km/h (0 Bft)
07.08.2015 07:00 19,5 C 77 % 1015,0 hPa 0,0 l/m 1,0 km/h (0 Bft) N 0,65 h 0,025 mm 0,6 UV-I 144 W/m 15,3 C 19,5 C 1,8 km/h (1 Bft)
07.08.2015 08:00 25,1 C 60 % 1015,0 hPa 0,0 l/m 0,3 km/h (0 Bft) N 1,00 h 0,076 mm 1,2 UV-I 355 W/m 16,7 C 25,1 C 1,4 km/h (1 Bft)
07.08.2015 09:00 29,4 C 46 % 1015,1 hPa 0,0 l/m 1,1 km/h (1 Bft) N 1,00 h 0,229 mm 2,3 UV-I 521 W/m 16,4 C 29,4 C 2,8 km/h (1 Bft)
07.08.2015 10:00 31,7 C 34 % 1015,2 hPa 0,0 l/m 3,4 km/h (1 Bft) O-SO 1,00 h 0,356 mm 3,5 UV-I 654 W/m 14,0 C 31,7 C 8,7 km/h (2 Bft)
07.08.2015 11:00 33,3 C 29 % 1014,9 hPa 0,0 l/m 4,5 km/h (1 Bft) SO 1,00 h 0,483 mm 5,0 UV-I 747 W/m 12,6 C 33,3 C 9,7 km/h (2 Bft)
07.08.2015 12:00 34,3 C 26 % 1014,7 hPa 0,0 l/m 5,3 km/h (1 Bft) SO 1,00 h 0,584 mm 5,8 UV-I 793 W/m 11,9 C 34,3 C 11,1 km/h (2 Bft)
07.08.2015 13:00 35,2 C 25 % 1014,6 hPa 0,0 l/m 4,0 km/h (1 Bft) O-NO 1,00 h 0,635 mm 5,9 UV-I 799 W/m 12,3 C 35,2 C 10,4 km/h (2 Bft)
07.08.2015 14:00 35,5 C 24 % 1014,3 hPa 0,0 l/m 3,2 km/h (1 Bft) SO 1,00 h 0,635 mm 5,4 UV-I 768 W/m 11,6 C 35,5 C 8,6 km/h (2 Bft)
07.08.2015 15:00 35,6 C 22 % 1014,0 hPa 0,0 l/m 3,7 km/h (1 Bft) SO 1,00 h 0,610 mm 4,4 UV-I 703 W/m 10,6 C 35,6 C 8,6 km/h (2 Bft)
07.08.2015 16:00 35,8 C 23 % 1013,7 hPa 0,0 l/m 3,8 km/h (1 Bft) SO 1,00 h 0,559 mm 2,9 UV-I 581 W/m 11,2 C 35,8 C 10,4 km/h (2 Bft)
07.08.2015 17:00 35,0 C 24 % 1013,5 hPa 0,0 l/m 2,6 km/h (1 Bft) SO 1,00 h 0,483 mm 1,6 UV-I 395 W/m 11,3 C 35,0 C 7,1 km/h (2 Bft)
07.08.2015 18:00 34,0 C 24 % 1013,3 hPa 0,0 l/m 0,6 km/h (0 Bft) N 0,85 h 0,330 mm 0,8 UV-I 73 W/m 10,5 C 34,0 C 2,3 km/h (1 Bft)
07.08.2015 19:00 32,9 C 25 % 1013,1 hPa 0,0 l/m 0,0 km/h (0 Bft) N 0,00 h 0,076 mm 0,0 UV-I 32 W/m 10,3 C 32,9 C 0,4 km/h (0 Bft)
07.08.2015 20:00 29,1 C 37 % 1013,2 hPa 0,0 l/m 0,0 km/h (0 Bft) N 0,00 h 0,051 mm 0,0 UV-I 7 W/m 12,9 C 29,1 C 0,0 km/h (0 Bft)
07.08.2015 21:00 25,7 C 48 % 1013,7 hPa 0,0 l/m 0,1 km/h (0 Bft) N 0,00 h 0,025 mm 0,0 UV-I 0 W/m 13,9 C 25,7 C 0,2 km/h (0 Bft)
07.08.2015 22:00 24,0 C 52 % 1013,9 hPa 0,0 l/m 0,0 km/h (0 Bft) N 0,00 h 0,051 mm 0,0 UV-I 0 W/m 13,5 C 24,0 C 0,0 km/h (0 Bft)
07.08.2015 23:00 21,8 C 63 % 1013,8 hPa 0,0 l/m 0,0 km/h (0 Bft) N 0,00 h 0,051 mm 0,0 UV-I 0 W/m 14,5 C 21,8 C 0,0 km/h (0 Bft)
08.08.2015 00:00 21,2 C 65 % 1013,8 hPa 0,0 l/m 0,5 km/h (0 Bft) N 0,00 h 0,025 mm 0,0 UV-I 0 W/m 14,5 C 21,2 C 1,2 km/h (1 Bft)
08.08.2015 01:00 20,9 C 66 % 1014,0 hPa 0,0 l/m 0,1 km/h (0 Bft) N 0,00 h 0,025 mm 0,0 UV-I 0 W/m 14,4 C 20,9 C 0,2 km/h (0 Bft)
08.08.2015 02:00 20,0 C 70 % 1013,8 hPa 0,0 l/m 0,0 km/h (0 Bft) N 0,00 h 0,025 mm 0,0 UV-I 0 W/m 14,3 C 20,0 C 0,1 km/h (0 Bft)
08.08.2015 03:00 19,4 C 73 % 1013,7 hPa 0,0 l/m 0,0 km/h (0 Bft) N 0,00 h 0,025 mm 0,0 UV-I 0 W/m 14,5 C 19,4 C 0,4 km/h (0 Bft)
08.08.2015 04:00 19,7 C 74 % 1014,0 hPa 0,0 l/m 0,0 km/h (0 Bft) N 0,00 h 0,000 mm 0,0 UV-I 0 W/m 15,0 C 19,7 C 0,0 km/h (0 Bft)
08.08.2015 05:00 19,4 C 76 % 1014,2 hPa 0,0 l/m 0,0 km/h (0 Bft) N 0,00 h 0,025 mm 0,0 UV-I 6 W/m 15,1 C 19,4 C 0,0 km/h (0 Bft)
08.08.2015 06:00 19,1 C 79 % 1014,4 hPa 0,0 l/m 0,0 km/h (0 Bft) N 0,00 h 0,000 mm 0,0 UV-I 29 W/m 15,4 C 19,1 C 0,0 km/h (0 Bft)
08.08.2015 07:00 20,7 C 75 % 1014,3 hPa 0,0 l/m 0,0 km/h (0 Bft) N 0,80 h 0,025 mm 0,6 UV-I 146 W/m 16,1 C 20,7 C 0,0 km/h (0 Bft)
08.08.2015 08:00 24,0 C 63 % 1014,5 hPa 0,0 l/m 1,8 km/h (1 Bft) N 1,00 h 0,102 mm 1,1 UV-I 311 W/m 16,4 C 24,0 C 3,5 km/h (1 Bft)
08.08.2015 09:00 27,4 C 51 % 1014,6 hPa 0,0 l/m 0,3 km/h (0 Bft) N 1,00 h 0,203 mm 2,2 UV-I 490 W/m 16,3 C 27,4 C 1,3 km/h (1 Bft)
08.08.2015 10:00 31,0 C 42 % 1014,5 hPa 0,0 l/m 0,2 km/h (0 Bft) N 1,00 h 0,330 mm 3,2 UV-I 619 W/m 16,5 C 31,0 C 1,1 km/h (0 Bft)
08.08.2015 11:00 32,7 C 37 % 1014,4 hPa 0,0 l/m 1,3 km/h (1 Bft) N 1,00 h 0,432 mm 4,6 UV-I 719 W/m 16,0 C 32,7 C 3,1 km/h (1 Bft)
08.08.2015 12:00 34,6 C 32 % 1014,2 hPa 0,0 l/m 1,6 km/h (1 Bft) S-SW 1,00 h 0,508 mm 5,4 UV-I 775 W/m 15,6 C 34,6 C 4,4 km/h (1 Bft)
08.08.2015 13:00 35,3 C 31 % 1014,0 hPa 0,0 l/m 9,3 km/h (2 Bft) NW 1,00 h 0,584 mm 5,7 UV-I 828 W/m 15,6 C 35,3 C 16,2 km/h (3 Bft)
08.08.2015 14:00 33,4 C 37 % 1014,1 hPa 0,0 l/m 8,4 km/h (2 Bft) N 1,00 h 0,711 mm 3,8 UV-I 488 W/m 16,6 C 33,4 C 15,1 km/h (3 Bft)
08.08.2015 15:00 33,8 C 36 % 1013,7 hPa 0,0 l/m 10,5 km/h (2 Bft) N 1,00 h 0,432 mm 3,2 UV-I 493 W/m 16,6 C 33,8 C 17,6 km/h (3 Bft)
08.08.2015 16:00 31,3 C 40 % 1014,2 hPa 0,0 l/m 5,2 km/h (1 Bft) N 1,00 h 0,457 mm 0,9 UV-I 143 W/m 16,3 C 31,3 C 10,5 km/h (2 Bft)
08.08.2015 17:00 31,0 C 43 % 1014,4 hPa 0,0 l/m 3,4 km/h (1 Bft) S-SO 1,00 h 0,178 mm 1,5 UV-I 369 W/m 16,8 C 31,0 C 7,1 km/h (2 Bft)
08.08.2015 18:00 29,6 C 44 % 1014,5 hPa 0,0 l/m 1,3 km/h (1 Bft) N 0,82 h 0,279 mm 0,6 UV-I 96 W/m 16,1 C 29,6 C 3,7 km/h (1 Bft)
08.08.2015 19:00 28,3 C 48 % 1014,7 hPa 0,0 l/m 2,6 km/h (1 Bft) N 0,00 h 0,076 mm 0,0 UV-I 24 W/m 16,2 C 28,2 C 6,3 km/h (2 Bft)
08.08.2015 20:00 27,1 C 52 % 1015,4 hPa 0,0 l/m 10,5 km/h (2 Bft) N 0,00 h 0,051 mm 0,0 UV-I 11 W/m 16,3 C 26,4 C 17,9 km/h (3 Bft)
08.08.2015 21:00 24,3 C 64 % 1016,1 hPa 0,0 l/m 12,4 km/h (2 Bft) N 0,00 h 0,102 mm 0,0 UV-I 0 W/m 17,1 C 22,9 C 19,8 km/h (3 Bft)
08.08.2015 22:00 23,4 C 66 % 1016,2 hPa 0,0 l/m 6,8 km/h (2 Bft) N 0,00 h 0,076 mm 0,0 UV-I 0 W/m 16,6 C 22,8 C 12,4 km/h (2 Bft)
08.08.2015 23:00 22,2 C 70 % 1016,7 hPa 0,0 l/m 3,8 km/h (1 Bft) N 0,00 h 0,051 mm 0,0 UV-I 0 W/m 16,4 C 22,0 C 8,2 km/h (2 Bft)
09.08.2015 00:00 21,5 C 72 % 1017,0 hPa 0,0 l/m 0,4 km/h (0 Bft) N 0,00 h 0,051 mm 0,0 UV-I 0 W/m 16,3 C 21,5 C 1,3 km/h (1 Bft)
09.08.2015 01:00 20,4 C 77 % 1017,1 hPa 0,0 l/m 0,1 km/h (0 Bft) N 0,00 h 0,025 mm 0,0 UV-I 0 W/m 16,2 C 20,4 C 0,2 km/h (0 Bft)
09.08.2015 02:00 19,6 C 81 % 1016,9 hPa 0,0 l/m 0,1 km/h (0 Bft) N 0,00 h 0,025 mm 0,0 UV-I 0 W/m 16,2 C 19,6 C 0,6 km/h (0 Bft)
09.08.2015 03:00 18,7 C 86 % 1017,0 hPa 0,0 l/m 0,8 km/h (0 Bft) N 0,00 h 0,025 mm 0,0 UV-I 0 W/m 16,2 C 18,7 C 3,1 km/h (1 Bft)
09.08.2015 04:00 18,1 C 88 % 1016,8 hPa 0,0 l/m 0,5 km/h (0 Bft) N 0,00 h 0,025 mm 0,0 UV-I 0 W/m 16,2 C 18,1 C 2,3 km/h (1 Bft)
09.08.2015 05:00 17,9 C 89 % 1016,8 hPa 0,0 l/m 0,3 km/h (0 Bft) N 0,00 h 0,000 mm 0,0 UV-I 5 W/m 16,1 C 17,9 C 1,6 km/h (1 Bft)
09.08.2015 06:00 17,9 C 90 % 1016,9 hPa 0,0 l/m 0,5 km/h (0 Bft) N 0,00 h 0,000 mm 0,0 UV-I 23 W/m 16,2 C 17,9 C 2,5 km/h (1 Bft)
09.08.2015 07:00 19,1 C 87 % 1016,8 hPa 0,0 l/m 3,0 km/h (1 Bft) N 0,82 h 0,025 mm 0,6 UV-I 115 W/m 16,7 C 19,0 C 6,6 km/h (2 Bft)
09.08.2015 08:00 20,5 C 81 % 1016,9 hPa 0,0 l/m 4,8 km/h (1 Bft) N-NO 1,00 h 0,076 mm 1,0 UV-I 202 W/m 17,2 C 20,4 C 9,3 km/h (2 Bft)
09.08.2015 09:00 23,0 C 73 % 1016,7 hPa 0,0 l/m 5,1 km/h (1 Bft) N 1,00 h 0,127 mm 2,1 UV-I 444 W/m 17,8 C 22,8 C 9,7 km/h (2 Bft)
09.08.2015 10:00 25,7 C 64 % 1016,6 hPa 0,0 l/m 4,3 km/h (1 Bft) N 1,00 h 0,279 mm 3,3 UV-I 604 W/m 18,2 C 25,6 C 8,6 km/h (2 Bft)
09.08.2015 11:00 27,8 C 57 % 1016,2 hPa 0,0 l/m 3,2 km/h (1 Bft) N 1,00 h 0,406 mm 4,6 UV-I 701 W/m 18,4 C 27,8 C 8,1 km/h (2 Bft)
09.08.2015 12:00 29,9 C 50 % 1015,6 hPa 0,0 l/m 2,8 km/h (1 Bft) N 1,00 h 0,483 mm 5,5 UV-I 762 W/m 18,3 C 29,9 C 6,7 km/h (2 Bft)
09.08.2015 13:00 31,4 C 45 % 1015,1 hPa 0,0 l/m 2,7 km/h (1 Bft) N 1,00 h 0,533 mm 5,6 UV-I 760 W/m 18,1 C 31,4 C 6,6 km/h (2 Bft)
09.08.2015 14:00 32,6 C 42 % 1014,7 hPa 0,0 l/m 2,9 km/h (1 Bft) N 1,00 h 0,533 mm 5,1 UV-I 724 W/m 17,9 C 32,6 C 7,0 km/h (2 Bft)
09.08.2015 15:00 32,9 C 41 % 1014,3 hPa 0,0 l/m 7,7 km/h (2 Bft) N 1,00 h 0,533 mm 3,9 UV-I 633 W/m 18,0 C 32,9 C 14,1 km/h (3 Bft)
09.08.2015 16:00 32,3 C 43 % 1013,8 hPa 0,0 l/m 10,9 km/h (2 Bft) N 1,00 h 0,508 mm 2,7 UV-I 518 W/m 18,0 C 32,2 C 17,8 km/h (3 Bft)
09.08.2015 17:00 31,7 C 43 % 1013,4 hPa 0,0 l/m 5,5 km/h (2 Bft) N 1,00 h 0,483 mm 1,6 UV-I 368 W/m 17,7 C 31,7 C 11,3 km/h (2 Bft)
09.08.2015 18:00 30,6 C 44 % 1013,2 hPa 0,0 l/m 4,0 km/h (1 Bft) O 1,00 h 0,305 mm 0,7 UV-I 90 W/m 16,8 C 30,5 C 9,7 km/h (2 Bft)
09.08.2015 19:00 29,0 C 48 % 1013,4 hPa 0,0 l/m 5,6 km/h (2 Bft) O-NO 0,15 h 0,102 mm 0,0 UV-I 40 W/m 17,0 C 28,9 C 11,8 km/h (2 Bft)
09.08.2015 20:00 27,3 C 53 % 1013,5 hPa 0,0 l/m 1,8 km/h (1 Bft) O-NO 0,00 h 0,076 mm 0,0 UV-I 14 W/m 16,9 C 27,3 C 6,1 km/h (2 Bft)
09.08.2015 21:00 25,4 C 60 % 1014,0 hPa 0,0 l/m 0,1 km/h (0 Bft) N 0,00 h 0,025 mm 0,0 UV-I 0 W/m 17,0 C 25,4 C 0,6 km/h (0 Bft)
09.08.2015 22:00 24,2 C 65 % 1014,3 hPa 0,0 l/m 0,0 km/h (0 Bft) N 0,00 h 0,051 mm 0,0 UV-I 0 W/m 17,1 C 24,2 C 0,3 km/h (0 Bft)
09.08.2015 23:00 22,8 C 70 % 1014,5 hPa 0,0 l/m 0,0 km/h (0 Bft) N 0,00 h 0,025 mm 0,0 UV-I 0 W/m 17,2 C 22,8 C 0,1 km/h (0 Bft)
Min-Datum _ 07.08.15 07.08.15 04.08.15 - 03.08.15 - - - - - 07.08.15 03.08.15 03.08.15
_ Min-Zeit 07:48 15:09 17:40 - 00:00 - - - - - 19:15 05:53 00:00
Minimum _ 0,0 C 21 % 1010,8 hPa - 0,0 km/h (0 Bft) - - - - - 9,3 C 11,7 C 0,0 km/h (0 Bft)
Max-Datum _ 07.08.15 03.08.15 03.08.15 03.08.15 04.08.15 - 09.08.15 08.08.15 05.08.15 05.08.15 03.08.15 07.08.15 04.08.15
_ Max-Zeit 16:02 06:07 00:30 00:00 18:48 - 09:22 14:00 13:01 11:56 12:59 16:02 18:48
Maximum _ 36,8 C 94 % 1018,8 hPa 0,0 l/m 24,1 km/h
W (4 Bft)
- 0,10 h 0,711 mm 6,8 UV-I 1046 W/m 22,3 C 36,8 C 35,4 km/h
W (5 Bft)
Durchschnitt _ 24,0 C 60 % 1015,3 hPa #0,0 l/m 2,1 km/h (1 Bft) N #81:50 h #31,512 mm 3,2 UV-I 392 W/m 14,6 C 24,0 C 4,4 km/h (1 Bft)